sensor_id;sensor_type;location;lat;lon;timestamp;P1;durP1;ratioP1;P2;durP2;ratioP2
22904;SDS011;11619;50.140;8.518;2022-08-21T00:01:35;10.30;;;5.97;;
22904;SDS011;11619;50.140;8.518;2022-08-21T00:04:05;8.27;;;5.38;;
22904;SDS011;11619;50.140;8.518;2022-08-21T00:06:33;7.85;;;5.57;;
22904;SDS011;11619;50.140;8.518;2022-08-21T00:09:00;9.43;;;6.20;;
22904;SDS011;11619;50.140;8.518;2022-08-21T00:11:32;10.40;;;6.00;;
22904;SDS011;11619;50.140;8.518;2022-08-21T00:13:59;6.05;;;5.28;;
22904;SDS011;11619;50.140;8.518;2022-08-21T00:16:25;10.25;;;5.75;;
22904;SDS011;11619;50.140;8.518;2022-08-21T00:18:52;6.68;;;5.43;;
22904;SDS011;11619;50.140;8.518;2022-08-21T00:21:18;9.75;;;5.97;;
22904;SDS011;11619;50.140;8.518;2022-08-21T00:23:45;5.88;;;4.80;;
22904;SDS011;11619;50.140;8.518;2022-08-21T00:26:11;9.13;;;6.13;;
22904;SDS011;11619;50.140;8.518;2022-08-21T00:28:38;9.02;;;6.05;;
22904;SDS011;11619;50.140;8.518;2022-08-21T00:31:04;10.52;;;6.20;;
22904;SDS011;11619;50.140;8.518;2022-08-21T00:33:31;12.30;;;5.97;;
22904;SDS011;11619;50.140;8.518;2022-08-21T00:35:58;7.50;;;6.13;;
22904;SDS011;11619;50.140;8.518;2022-08-21T00:38:25;6.70;;;6.00;;
22904;SDS011;11619;50.140;8.518;2022-08-21T00:40:53;9.88;;;6.90;;
22904;SDS011;11619;50.140;8.518;2022-08-21T00:43:23;6.22;;;5.63;;
22904;SDS011;11619;50.140;8.518;2022-08-21T00:45:54;8.18;;;6.18;;
22904;SDS011;11619;50.140;8.518;2022-08-21T00:48:21;9.18;;;6.18;;
22904;SDS011;11619;50.140;8.518;2022-08-21T00:50:50;7.95;;;6.10;;
22904;SDS011;11619;50.140;8.518;2022-08-21T00:53:20;6.25;;;5.65;;
22904;SDS011;11619;50.140;8.518;2022-08-21T00:55:48;7.70;;;5.85;;
22904;SDS011;11619;50.140;8.518;2022-08-21T00:58:15;8.88;;;5.63;;
22904;SDS011;11619;50.140;8.518;2022-08-21T01:00:44;6.85;;;5.40;;
22904;SDS011;11619;50.140;8.518;2022-08-21T01:03:14;9.93;;;6.15;;
22904;SDS011;11619;50.140;8.518;2022-08-21T01:05:43;7.55;;;5.60;;
22904;SDS011;11619;50.140;8.518;2022-08-21T01:08:10;6.97;;;5.68;;
22904;SDS011;11619;50.140;8.518;2022-08-21T01:10:38;7.75;;;6.28;;
22904;SDS011;11619;50.140;8.518;2022-08-21T01:13:05;6.00;;;5.22;;
22904;SDS011;11619;50.140;8.518;2022-08-21T01:15:34;6.30;;;5.65;;
22904;SDS011;11619;50.140;8.518;2022-08-21T01:18:02;6.60;;;5.78;;
22904;SDS011;11619;50.140;8.518;2022-08-21T01:20:30;7.93;;;6.05;;
22904;SDS011;11619;50.140;8.518;2022-08-21T01:22:58;7.57;;;5.30;;
22904;SDS011;11619;50.140;8.518;2022-08-21T01:25:25;5.85;;;5.10;;
22904;SDS011;11619;50.140;8.518;2022-08-21T01:27:52;5.60;;;4.95;;
22904;SDS011;11619;50.140;8.518;2022-08-21T01:30:20;5.25;;;4.65;;
22904;SDS011;11619;50.140;8.518;2022-08-21T01:32:49;5.55;;;4.97;;
22904;SDS011;11619;50.140;8.518;2022-08-21T01:35:17;6.65;;;5.28;;
22904;SDS011;11619;50.140;8.518;2022-08-21T01:37:45;5.28;;;4.47;;
22904;SDS011;11619;50.140;8.518;2022-08-21T01:40:12;6.32;;;5.25;;
22904;SDS011;11619;50.140;8.518;2022-08-21T01:42:42;5.45;;;4.95;;
22904;SDS011;11619;50.140;8.518;2022-08-21T01:45:09;4.82;;;4.43;;
22904;SDS011;11619;50.140;8.518;2022-08-21T01:47:36;5.05;;;4.63;;
22904;SDS011;11619;50.140;8.518;2022-08-21T01:50:04;6.30;;;5.65;;
22904;SDS011;11619;50.140;8.518;2022-08-21T01:52:32;5.68;;;4.75;;
22904;SDS011;11619;50.140;8.518;2022-08-21T01:54:59;6.50;;;5.07;;
22904;SDS011;11619;50.140;8.518;2022-08-21T01:57:25;5.93;;;5.32;;
22904;SDS011;11619;50.140;8.518;2022-08-21T01:59:52;5.65;;;5.18;;
22904;SDS011;11619;50.140;8.518;2022-08-21T02:02:19;5.95;;;5.40;;
22904;SDS011;11619;50.140;8.518;2022-08-21T02:04:45;7.20;;;5.35;;
22904;SDS011;11619;50.140;8.518;2022-08-21T02:07:12;6.65;;;5.32;;
22904;SDS011;11619;50.140;8.518;2022-08-21T02:09:38;5.10;;;4.70;;
22904;SDS011;11619;50.140;8.518;2022-08-21T02:12:05;5.72;;;4.82;;
22904;SDS011;11619;50.140;8.518;2022-08-21T02:14:31;5.38;;;4.97;;
22904;SDS011;11619;50.140;8.518;2022-08-21T02:16:58;7.68;;;5.45;;
22904;SDS011;11619;50.140;8.518;2022-08-21T02:19:34;5.57;;;5.07;;
22904;SDS011;11619;50.140;8.518;2022-08-21T02:22:06;5.75;;;5.25;;
22904;SDS011;11619;50.140;8.518;2022-08-21T02:24:36;6.70;;;5.18;;
22904;SDS011;11619;50.140;8.518;2022-08-21T02:27:20;6.18;;;5.63;;
22904;SDS011;11619;50.140;8.518;2022-08-21T02:29:52;5.50;;;4.65;;
22904;SDS011;11619;50.140;8.518;2022-08-21T02:32:19;5.03;;;4.55;;
22904;SDS011;11619;50.140;8.518;2022-08-21T02:34:47;7.18;;;5.25;;
22904;SDS011;11619;50.140;8.518;2022-08-21T02:37:15;6.93;;;5.18;;
22904;SDS011;11619;50.140;8.518;2022-08-21T02:39:41;5.30;;;4.63;;
22904;SDS011;11619;50.140;8.518;2022-08-21T02:42:08;5.00;;;4.50;;
22904;SDS011;11619;50.140;8.518;2022-08-21T02:44:35;5.65;;;5.15;;
22904;SDS011;11619;50.140;8.518;2022-08-21T02:47:01;5.50;;;4.78;;
22904;SDS011;11619;50.140;8.518;2022-08-21T02:49:29;6.00;;;4.95;;
22904;SDS011;11619;50.140;8.518;2022-08-21T02:51:55;5.07;;;4.57;;
22904;SDS011;11619;50.140;8.518;2022-08-21T02:54:22;4.88;;;4.47;;
22904;SDS011;11619;50.140;8.518;2022-08-21T02:56:48;6.05;;;5.30;;
22904;SDS011;11619;50.140;8.518;2022-08-21T02:59:14;6.18;;;5.57;;
22904;SDS011;11619;50.140;8.518;2022-08-21T03:01:41;6.18;;;4.72;;
22904;SDS011;11619;50.140;8.518;2022-08-21T03:04:07;5.35;;;4.75;;
22904;SDS011;11619;50.140;8.518;2022-08-21T03:06:34;4.85;;;4.45;;
22904;SDS011;11619;50.140;8.518;2022-08-21T03:09:00;6.60;;;5.68;;
22904;SDS011;11619;50.140;8.518;2022-08-21T03:11:26;6.00;;;5.50;;
22904;SDS011;11619;50.140;8.518;2022-08-21T03:13:53;5.43;;;4.93;;
22904;SDS011;11619;50.140;8.518;2022-08-21T03:16:19;9.27;;;5.60;;
22904;SDS011;11619;50.140;8.518;2022-08-21T03:18:46;6.22;;;5.57;;
22904;SDS011;11619;50.140;8.518;2022-08-21T03:21:13;5.97;;;5.38;;
22904;SDS011;11619;50.140;8.518;2022-08-21T03:23:39;6.13;;;5.53;;
22904;SDS011;11619;50.140;8.518;2022-08-21T03:26:08;6.22;;;5.53;;
22904;SDS011;11619;50.140;8.518;2022-08-21T03:28:36;7.57;;;5.07;;
22904;SDS011;11619;50.140;8.518;2022-08-21T03:31:03;6.03;;;5.00;;
22904;SDS011;11619;50.140;8.518;2022-08-21T03:33:32;6.88;;;4.97;;
22904;SDS011;11619;50.140;8.518;2022-08-21T03:36:01;6.40;;;5.22;;
22904;SDS011;11619;50.140;8.518;2022-08-21T03:38:31;21.92;;;5.18;;
22904;SDS011;11619;50.140;8.518;2022-08-21T03:40:58;6.25;;;5.70;;
22904;SDS011;11619;50.140;8.518;2022-08-21T03:43:26;5.90;;;4.95;;
22904;SDS011;11619;50.140;8.518;2022-08-21T03:45:56;5.90;;;5.10;;
22904;SDS011;11619;50.140;8.518;2022-08-21T03:48:22;8.68;;;5.97;;
22904;SDS011;11619;50.140;8.518;2022-08-21T03:50:51;6.10;;;5.50;;
22904;SDS011;11619;50.140;8.518;2022-08-21T03:53:18;5.60;;;5.20;;
22904;SDS011;11619;50.140;8.518;2022-08-21T03:55:45;5.70;;;5.20;;
22904;SDS011;11619;50.140;8.518;2022-08-21T03:58:13;6.15;;;5.18;;
22904;SDS011;11619;50.140;8.518;2022-08-21T04:00:43;7.40;;;5.93;;
22904;SDS011;11619;50.140;8.518;2022-08-21T04:03:11;5.72;;;5.13;;
22904;SDS011;11619;50.140;8.518;2022-08-21T04:05:38;6.18;;;5.60;;
22904;SDS011;11619;50.140;8.518;2022-08-21T04:08:05;6.35;;;5.75;;
22904;SDS011;11619;50.140;8.518;2022-08-21T04:10:33;6.30;;;5.53;;
22904;SDS011;11619;50.140;8.518;2022-08-21T04:13:01;5.50;;;5.05;;
22904;SDS011;11619;50.140;8.518;2022-08-21T04:15:27;4.93;;;4.53;;
22904;SDS011;11619;50.140;8.518;2022-08-21T04:17:54;5.90;;;5.20;;
22904;SDS011;11619;50.140;8.518;2022-08-21T04:20:21;5.80;;;5.30;;
22904;SDS011;11619;50.140;8.518;2022-08-21T04:22:48;5.95;;;5.45;;
22904;SDS011;11619;50.140;8.518;2022-08-21T04:25:16;6.38;;;5.78;;
22904;SDS011;11619;50.140;8.518;2022-08-21T04:27:44;6.53;;;5.97;;
22904;SDS011;11619;50.140;8.518;2022-08-21T04:30:11;5.65;;;4.93;;
22904;SDS011;11619;50.140;8.518;2022-08-21T04:32:41;6.40;;;5.70;;
22904;SDS011;11619;50.140;8.518;2022-08-21T04:35:10;5.68;;;5.13;;
22904;SDS011;11619;50.140;8.518;2022-08-21T04:37:37;6.28;;;5.68;;
22904;SDS011;11619;50.140;8.518;2022-08-21T04:40:07;6.10;;;5.32;;
22904;SDS011;11619;50.140;8.518;2022-08-21T04:42:41;5.70;;;5.25;;
22904;SDS011;11619;50.140;8.518;2022-08-21T04:45:17;7.32;;;5.95;;
22904;SDS011;11619;50.140;8.518;2022-08-21T04:47:51;7.38;;;6.05;;
22904;SDS011;11619;50.140;8.518;2022-08-21T04:50:19;6.75;;;6.03;;
22904;SDS011;11619;50.140;8.518;2022-08-21T04:52:48;7.43;;;5.40;;
22904;SDS011;11619;50.140;8.518;2022-08-21T04:55:15;6.45;;;5.85;;
22904;SDS011;11619;50.140;8.518;2022-08-21T04:57:43;6.30;;;5.80;;
22904;SDS011;11619;50.140;8.518;2022-08-21T05:00:14;7.90;;;6.22;;
22904;SDS011;11619;50.140;8.518;2022-08-21T05:02:44;6.30;;;5.70;;
22904;SDS011;11619;50.140;8.518;2022-08-21T05:05:13;6.20;;;5.70;;
22904;SDS011;11619;50.140;8.518;2022-08-21T05:07:39;6.78;;;6.22;;
22904;SDS011;11619;50.140;8.518;2022-08-21T05:10:08;6.47;;;5.90;;
22904;SDS011;11619;50.140;8.518;2022-08-21T05:12:37;6.38;;;5.88;;
22904;SDS011;11619;50.140;8.518;2022-08-21T05:15:04;5.82;;;5.43;;
22904;SDS011;11619;50.140;8.518;2022-08-21T05:17:30;7.30;;;6.55;;
22904;SDS011;11619;50.140;8.518;2022-08-21T05:19:57;8.43;;;6.68;;
22904;SDS011;11619;50.140;8.518;2022-08-21T05:22:23;6.70;;;6.00;;
22904;SDS011;11619;50.140;8.518;2022-08-21T05:24:50;7.38;;;5.60;;
22904;SDS011;11619;50.140;8.518;2022-08-21T05:27:18;6.00;;;5.53;;
22904;SDS011;11619;50.140;8.518;2022-08-21T05:29:45;6.55;;;6.00;;
22904;SDS011;11619;50.140;8.518;2022-08-21T05:32:12;7.13;;;6.43;;
22904;SDS011;11619;50.140;8.518;2022-08-21T05:34:40;6.72;;;6.18;;
22904;SDS011;11619;50.140;8.518;2022-08-21T05:37:07;6.47;;;5.75;;
22904;SDS011;11619;50.140;8.518;2022-08-21T05:39:36;6.28;;;5.78;;
22904;SDS011;11619;50.140;8.518;2022-08-21T05:42:23;6.70;;;5.97;;
22904;SDS011;11619;50.140;8.518;2022-08-21T05:44:49;7.22;;;6.60;;
22904;SDS011;11619;50.140;8.518;2022-08-21T05:47:16;7.20;;;6.43;;
22904;SDS011;11619;50.140;8.518;2022-08-21T05:49:42;8.40;;;7.60;;
22904;SDS011;11619;50.140;8.518;2022-08-21T05:52:09;9.05;;;8.20;;
22904;SDS011;11619;50.140;8.518;2022-08-21T05:54:36;9.32;;;7.43;;
22904;SDS011;11619;50.140;8.518;2022-08-21T05:57:02;8.88;;;7.97;;
22904;SDS011;11619;50.140;8.518;2022-08-21T05:59:29;9.60;;;8.02;;
22904;SDS011;11619;50.140;8.518;2022-08-21T06:01:55;10.32;;;8.00;;
22904;SDS011;11619;50.140;8.518;2022-08-21T06:04:22;9.25;;;7.50;;
22904;SDS011;11619;50.140;8.518;2022-08-21T06:06:48;10.50;;;8.20;;
22904;SDS011;11619;50.140;8.518;2022-08-21T06:09:15;12.43;;;8.10;;
22904;SDS011;11619;50.140;8.518;2022-08-21T06:11:41;11.48;;;6.85;;
22904;SDS011;11619;50.140;8.518;2022-08-21T06:14:07;8.70;;;7.47;;
22904;SDS011;11619;50.140;8.518;2022-08-21T06:16:34;8.65;;;7.03;;
22904;SDS011;11619;50.140;8.518;2022-08-21T06:19:00;10.35;;;6.45;;
22904;SDS011;11619;50.140;8.518;2022-08-21T06:21:28;8.38;;;6.25;;
22904;SDS011;11619;50.140;8.518;2022-08-21T06:23:54;10.32;;;6.90;;
22904;SDS011;11619;50.140;8.518;2022-08-21T06:26:21;8.57;;;6.75;;
22904;SDS011;11619;50.140;8.518;2022-08-21T06:28:48;9.25;;;7.20;;
22904;SDS011;11619;50.140;8.518;2022-08-21T06:31:16;10.77;;;6.75;;
22904;SDS011;11619;50.140;8.518;2022-08-21T06:33:47;9.88;;;7.30;;
22904;SDS011;11619;50.140;8.518;2022-08-21T06:36:14;8.65;;;6.95;;
22904;SDS011;11619;50.140;8.518;2022-08-21T06:38:41;11.55;;;6.70;;
22904;SDS011;11619;50.140;8.518;2022-08-21T06:41:16;10.52;;;7.22;;
22904;SDS011;11619;50.140;8.518;2022-08-21T06:43:49;9.45;;;7.15;;
22904;SDS011;11619;50.140;8.518;2022-08-21T06:46:16;12.18;;;7.43;;
22904;SDS011;11619;50.140;8.518;2022-08-21T06:48:42;9.60;;;6.60;;
22904;SDS011;11619;50.140;8.518;2022-08-21T06:51:09;9.55;;;7.05;;
22904;SDS011;11619;50.140;8.518;2022-08-21T06:53:35;12.20;;;7.65;;
22904;SDS011;11619;50.140;8.518;2022-08-21T06:56:02;11.52;;;8.02;;
22904;SDS011;11619;50.140;8.518;2022-08-21T06:58:29;10.82;;;7.22;;
22904;SDS011;11619;50.140;8.518;2022-08-21T07:00:56;9.20;;;7.20;;
22904;SDS011;11619;50.140;8.518;2022-08-21T07:03:27;11.88;;;7.53;;
22904;SDS011;11619;50.140;8.518;2022-08-21T07:06:05;12.75;;;8.23;;
22904;SDS011;11619;50.140;8.518;2022-08-21T07:08:32;12.18;;;8.45;;
22904;SDS011;11619;50.140;8.518;2022-08-21T07:11:00;12.85;;;8.85;;
22904;SDS011;11619;50.140;8.518;2022-08-21T07:13:28;12.27;;;6.82;;
22904;SDS011;11619;50.140;8.518;2022-08-21T07:15:54;14.90;;;8.13;;
22904;SDS011;11619;50.140;8.518;2022-08-21T07:18:26;6.82;;;6.13;;
22904;SDS011;11619;50.140;8.518;2022-08-21T07:20:54;15.45;;;7.63;;
22904;SDS011;11619;50.140;8.518;2022-08-21T07:23:22;10.63;;;7.55;;
22904;SDS011;11619;50.140;8.518;2022-08-21T07:25:52;9.73;;;6.93;;
22904;SDS011;11619;50.140;8.518;2022-08-21T07:28:18;9.88;;;7.47;;
22904;SDS011;11619;50.140;8.518;2022-08-21T07:30:45;8.18;;;7.38;;
22904;SDS011;11619;50.140;8.518;2022-08-21T07:33:12;7.95;;;6.90;;
22904;SDS011;11619;50.140;8.518;2022-08-21T07:35:39;9.35;;;6.97;;
22904;SDS011;11619;50.140;8.518;2022-08-21T07:38:06;7.35;;;6.65;;
22904;SDS011;11619;50.140;8.518;2022-08-21T07:40:32;10.45;;;6.90;;
22904;SDS011;11619;50.140;8.518;2022-08-21T07:42:59;9.35;;;6.75;;
22904;SDS011;11619;50.140;8.518;2022-08-21T07:45:25;8.00;;;6.43;;
22904;SDS011;11619;50.140;8.518;2022-08-21T07:47:53;9.27;;;7.47;;
22904;SDS011;11619;50.140;8.518;2022-08-21T07:50:23;8.93;;;6.40;;
22904;SDS011;11619;50.140;8.518;2022-08-21T07:52:49;11.30;;;7.63;;
22904;SDS011;11619;50.140;8.518;2022-08-21T07:55:17;9.85;;;6.38;;
22904;SDS011;11619;50.140;8.518;2022-08-21T07:57:45;10.88;;;7.78;;
22904;SDS011;11619;50.140;8.518;2022-08-21T08:00:14;7.70;;;6.45;;
22904;SDS011;11619;50.140;8.518;2022-08-21T08:02:44;8.18;;;6.57;;
22904;SDS011;11619;50.140;8.518;2022-08-21T08:05:12;13.35;;;7.28;;
22904;SDS011;11619;50.140;8.518;2022-08-21T08:07:39;10.40;;;7.13;;
22904;SDS011;11619;50.140;8.518;2022-08-21T08:10:06;10.80;;;8.25;;
22904;SDS011;11619;50.140;8.518;2022-08-21T08:12:34;10.45;;;8.20;;
22904;SDS011;11619;50.140;8.518;2022-08-21T08:15:02;10.52;;;7.85;;
22904;SDS011;11619;50.140;8.518;2022-08-21T08:17:29;9.52;;;6.70;;
22904;SDS011;11619;50.140;8.518;2022-08-21T08:19:58;9.07;;;8.18;;
22904;SDS011;11619;50.140;8.518;2022-08-21T08:22:26;14.25;;;9.27;;
22904;SDS011;11619;50.140;8.518;2022-08-21T08:24:53;10.57;;;7.72;;
22904;SDS011;11619;50.140;8.518;2022-08-21T08:27:20;10.77;;;9.13;;
22904;SDS011;11619;50.140;8.518;2022-08-21T08:29:47;11.20;;;7.53;;
22904;SDS011;11619;50.140;8.518;2022-08-21T08:32:13;11.50;;;7.45;;
22904;SDS011;11619;50.140;8.518;2022-08-21T08:34:40;10.60;;;7.03;;
22904;SDS011;11619;50.140;8.518;2022-08-21T08:37:07;10.02;;;6.40;;
22904;SDS011;11619;50.140;8.518;2022-08-21T08:39:35;10.02;;;6.55;;
22904;SDS011;11619;50.140;8.518;2022-08-21T08:42:08;8.05;;;6.75;;
22904;SDS011;11619;50.140;8.518;2022-08-21T08:45:10;7.45;;;6.55;;
22904;SDS011;11619;50.140;8.518;2022-08-21T08:47:40;8.88;;;5.30;;
22904;SDS011;11619;50.140;8.518;2022-08-21T08:50:12;9.88;;;6.22;;
22904;SDS011;11619;50.140;8.518;2022-08-21T08:52:47;9.13;;;5.03;;
22904;SDS011;11619;50.140;8.518;2022-08-21T08:55:33;9.93;;;6.38;;
22904;SDS011;11619;50.140;8.518;2022-08-21T08:58:01;7.80;;;5.53;;
22904;SDS011;11619;50.140;8.518;2022-08-21T09:00:29;10.18;;;5.63;;
22904;SDS011;11619;50.140;8.518;2022-08-21T09:02:57;7.85;;;4.95;;
22904;SDS011;11619;50.140;8.518;2022-08-21T09:05:28;8.48;;;5.05;;
22904;SDS011;11619;50.140;8.518;2022-08-21T09:13:31;13.05;;;5.53;;
22904;SDS011;11619;50.140;8.518;2022-08-21T09:18:54;7.63;;;3.92;;
22904;SDS011;11619;50.140;8.518;2022-08-21T09:21:35;6.57;;;4.15;;
22904;SDS011;11619;50.140;8.518;2022-08-21T09:24:32;6.63;;;4.65;;
22904;SDS011;11619;50.140;8.518;2022-08-21T09:29:38;5.70;;;4.65;;
22904;SDS011;11619;50.140;8.518;2022-08-21T09:32:14;10.52;;;5.75;;
22904;SDS011;11619;50.140;8.518;2022-08-21T09:37:33;6.93;;;5.20;;
22904;SDS011;11619;50.140;8.518;2022-08-21T09:40:02;7.35;;;4.50;;
22904;SDS011;11619;50.140;8.518;2022-08-21T09:42:42;6.63;;;3.95;;
22904;SDS011;11619;50.140;8.518;2022-08-21T09:45:21;8.30;;;4.70;;
22904;SDS011;11619;50.140;8.518;2022-08-21T09:47:47;7.68;;;4.13;;
22904;SDS011;11619;50.140;8.518;2022-08-21T09:50:20;6.70;;;4.07;;
22904;SDS011;11619;50.140;8.518;2022-08-21T09:52:53;6.13;;;4.25;;
22904;SDS011;11619;50.140;8.518;2022-08-21T09:55:30;8.07;;;4.93;;
22904;SDS011;11619;50.140;8.518;2022-08-21T09:58:17;11.75;;;4.85;;
22904;SDS011;11619;50.140;8.518;2022-08-21T10:00:44;6.07;;;4.60;;
22904;SDS011;11619;50.140;8.518;2022-08-21T10:03:13;7.85;;;4.95;;
22904;SDS011;11619;50.140;8.518;2022-08-21T10:05:53;6.47;;;4.45;;
22904;SDS011;11619;50.140;8.518;2022-08-21T10:08:35;7.53;;;4.18;;
22904;SDS011;11619;50.140;8.518;2022-08-21T10:11:10;5.95;;;3.80;;
22904;SDS011;11619;50.140;8.518;2022-08-21T10:19:16;7.20;;;3.35;;
22904;SDS011;11619;50.140;8.518;2022-08-21T10:25:00;7.15;;;3.05;;
22904;SDS011;11619;50.140;8.518;2022-08-21T10:27:55;5.78;;;4.10;;
22904;SDS011;11619;50.140;8.518;2022-08-21T10:30:43;8.85;;;3.47;;
22904;SDS011;11619;50.140;8.518;2022-08-21T10:33:24;5.28;;;3.67;;
22904;SDS011;11619;50.140;8.518;2022-08-21T10:36:11;7.25;;;3.75;;
22904;SDS011;11619;50.140;8.518;2022-08-21T10:44:43;5.53;;;2.97;;
22904;SDS011;11619;50.140;8.518;2022-08-21T10:47:15;5.72;;;3.20;;
22904;SDS011;11619;50.140;8.518;2022-08-21T10:49:50;5.07;;;3.08;;
22904;SDS011;11619;50.140;8.518;2022-08-21T10:55:21;4.97;;;3.28;;
22904;SDS011;11619;50.140;8.518;2022-08-21T10:58:01;5.95;;;2.90;;
22904;SDS011;11619;50.140;8.518;2022-08-21T11:05:54;5.88;;;3.25;;
22904;SDS011;11619;50.140;8.518;2022-08-21T11:08:32;7.18;;;2.90;;
22904;SDS011;11619;50.140;8.518;2022-08-21T11:16:18;6.78;;;2.80;;
22904;SDS011;11619;50.140;8.518;2022-08-21T11:19:11;6.07;;;3.35;;
22904;SDS011;11619;50.140;8.518;2022-08-21T11:21:45;4.70;;;2.80;;
22904;SDS011;11619;50.140;8.518;2022-08-21T11:24:23;6.70;;;3.00;;
22904;SDS011;11619;50.140;8.518;2022-08-21T11:27:01;3.17;;;2.45;;
22904;SDS011;11619;50.140;8.518;2022-08-21T11:29:33;5.88;;;3.00;;
22904;SDS011;11619;50.140;8.518;2022-08-21T11:46:14;5.45;;;2.70;;
22904;SDS011;11619;50.140;8.518;2022-08-21T11:49:11;5.07;;;2.80;;
22904;SDS011;11619;50.140;8.518;2022-08-21T11:54:27;4.82;;;3.00;;
22904;SDS011;11619;50.140;8.518;2022-08-21T11:57:07;4.43;;;2.30;;
22904;SDS011;11619;50.140;8.518;2022-08-21T12:02:24;4.70;;;2.65;;
22904;SDS011;11619;50.140;8.518;2022-08-21T12:04:56;4.07;;;3.03;;
22904;SDS011;11619;50.140;8.518;2022-08-21T12:10:00;4.15;;;2.42;;
22904;SDS011;11619;50.140;8.518;2022-08-21T12:12:29;5.05;;;3.00;;
22904;SDS011;11619;50.140;8.518;2022-08-21T12:17:55;5.32;;;3.00;;
22904;SDS011;11619;50.140;8.518;2022-08-21T12:20:44;5.70;;;2.97;;
22904;SDS011;11619;50.140;8.518;2022-08-21T12:23:17;5.07;;;2.75;;
22904;SDS011;11619;50.140;8.518;2022-08-21T12:28:34;7.55;;;3.03;;
22904;SDS011;11619;50.140;8.518;2022-08-21T12:31:01;7.57;;;3.33;;
22904;SDS011;11619;50.140;8.518;2022-08-21T12:33:35;8.00;;;3.13;;
22904;SDS011;11619;50.140;8.518;2022-08-21T12:36:09;4.80;;;2.83;;
22904;SDS011;11619;50.140;8.518;2022-08-21T12:41:34;5.18;;;2.72;;
22904;SDS011;11619;50.140;8.518;2022-08-21T12:44:33;4.85;;;2.63;;
22904;SDS011;11619;50.140;8.518;2022-08-21T12:49:49;4.05;;;2.97;;
22904;SDS011;11619;50.140;8.518;2022-08-21T12:52:34;6.10;;;2.75;;
22904;SDS011;11619;50.140;8.518;2022-08-21T12:55:05;4.70;;;2.63;;
22904;SDS011;11619;50.140;8.518;2022-08-21T12:57:35;3.92;;;2.60;;
22904;SDS011;11619;50.140;8.518;2022-08-21T13:00:05;5.40;;;2.88;;
22904;SDS011;11619;50.140;8.518;2022-08-21T13:02:37;5.55;;;2.58;;
22904;SDS011;11619;50.140;8.518;2022-08-21T13:05:06;3.00;;;2.22;;
22904;SDS011;11619;50.140;8.518;2022-08-21T13:07:34;4.78;;;2.70;;
22904;SDS011;11619;50.140;8.518;2022-08-21T13:10:14;4.38;;;2.38;;
22904;SDS011;11619;50.140;8.518;2022-08-21T13:12:44;4.40;;;2.08;;
22904;SDS011;11619;50.140;8.518;2022-08-21T13:15:11;4.22;;;2.38;;
22904;SDS011;11619;50.140;8.518;2022-08-21T13:17:41;7.72;;;2.90;;
22904;SDS011;11619;50.140;8.518;2022-08-21T13:20:22;5.85;;;2.80;;
22904;SDS011;11619;50.140;8.518;2022-08-21T13:22:49;7.10;;;2.80;;
22904;SDS011;11619;50.140;8.518;2022-08-21T13:25:17;6.43;;;3.05;;
22904;SDS011;11619;50.140;8.518;2022-08-21T13:27:57;7.05;;;2.75;;
22904;SDS011;11619;50.140;8.518;2022-08-21T13:30:30;5.75;;;2.38;;
22904;SDS011;11619;50.140;8.518;2022-08-21T13:33:01;4.22;;;2.28;;
22904;SDS011;11619;50.140;8.518;2022-08-21T13:35:45;4.72;;;2.30;;
22904;SDS011;11619;50.140;8.518;2022-08-21T13:38:19;3.03;;;1.63;;
22904;SDS011;11619;50.140;8.518;2022-08-21T13:40:56;5.32;;;2.42;;
22904;SDS011;11619;50.140;8.518;2022-08-21T13:43:44;5.82;;;2.00;;
22904;SDS011;11619;50.140;8.518;2022-08-21T13:46:13;3.53;;;2.30;;
22904;SDS011;11619;50.140;8.518;2022-08-21T13:48:41;3.85;;;2.38;;
22904;SDS011;11619;50.140;8.518;2022-08-21T13:51:08;4.30;;;2.08;;
22904;SDS011;11619;50.140;8.518;2022-08-21T13:53:36;6.85;;;2.40;;
22904;SDS011;11619;50.140;8.518;2022-08-21T13:56:33;5.50;;;2.25;;
22904;SDS011;11619;50.140;8.518;2022-08-21T13:59:08;4.28;;;2.25;;
22904;SDS011;11619;50.140;8.518;2022-08-21T14:01:36;5.40;;;2.15;;
22904;SDS011;11619;50.140;8.518;2022-08-21T14:04:14;3.90;;;2.42;;
22904;SDS011;11619;50.140;8.518;2022-08-21T14:06:45;4.72;;;2.55;;
22904;SDS011;11619;50.140;8.518;2022-08-21T14:09:14;2.72;;;2.00;;
22904;SDS011;11619;50.140;8.518;2022-08-21T14:11:55;3.95;;;2.25;;
22904;SDS011;11619;50.140;8.518;2022-08-21T14:14:24;3.85;;;2.13;;
22904;SDS011;11619;50.140;8.518;2022-08-21T14:17:04;5.40;;;2.00;;
22904;SDS011;11619;50.140;8.518;2022-08-21T14:19:54;4.50;;;1.85;;
22904;SDS011;11619;50.140;8.518;2022-08-21T14:22:29;3.38;;;1.92;;
22904;SDS011;11619;50.140;8.518;2022-08-21T14:25:00;2.97;;;2.03;;
22904;SDS011;11619;50.140;8.518;2022-08-21T14:27:29;4.88;;;2.30;;
22904;SDS011;11619;50.140;8.518;2022-08-21T14:30:03;6.75;;;2.63;;
22904;SDS011;11619;50.140;8.518;2022-08-21T14:32:40;4.75;;;2.30;;
22904;SDS011;11619;50.140;8.518;2022-08-21T14:35:11;4.85;;;2.25;;
22904;SDS011;11619;50.140;8.518;2022-08-21T14:37:48;3.38;;;1.90;;
22904;SDS011;11619;50.140;8.518;2022-08-21T14:40:19;2.42;;;1.83;;
22904;SDS011;11619;50.140;8.518;2022-08-21T14:42:46;2.97;;;2.15;;
22904;SDS011;11619;50.140;8.518;2022-08-21T14:45:17;2.65;;;1.98;;
22904;SDS011;11619;50.140;8.518;2022-08-21T14:47:53;3.55;;;2.40;;
22904;SDS011;11619;50.140;8.518;2022-08-21T14:50:20;5.22;;;2.30;;
22904;SDS011;11619;50.140;8.518;2022-08-21T14:52:46;4.03;;;1.92;;
22904;SDS011;11619;50.140;8.518;2022-08-21T14:55:14;4.68;;;2.28;;
22904;SDS011;11619;50.140;8.518;2022-08-21T14:57:46;4.45;;;2.25;;
22904;SDS011;11619;50.140;8.518;2022-08-21T15:00:14;3.72;;;2.08;;
22904;SDS011;11619;50.140;8.518;2022-08-21T15:02:46;4.88;;;2.10;;
22904;SDS011;11619;50.140;8.518;2022-08-21T15:05:14;3.53;;;2.00;;
22904;SDS011;11619;50.140;8.518;2022-08-21T15:07:51;3.67;;;2.00;;
22904;SDS011;11619;50.140;8.518;2022-08-21T15:10:18;4.30;;;1.85;;
22904;SDS011;11619;50.140;8.518;2022-08-21T15:12:44;4.43;;;2.15;;
22904;SDS011;11619;50.140;8.518;2022-08-21T15:15:11;3.53;;;2.22;;
22904;SDS011;11619;50.140;8.518;2022-08-21T15:17:42;5.65;;;2.08;;
22904;SDS011;11619;50.140;8.518;2022-08-21T15:20:13;5.60;;;2.20;;
22904;SDS011;11619;50.140;8.518;2022-08-21T15:22:40;4.25;;;2.20;;
22904;SDS011;11619;50.140;8.518;2022-08-21T15:25:12;3.88;;;2.03;;
22904;SDS011;11619;50.140;8.518;2022-08-21T15:27:39;2.88;;;1.65;;
22904;SDS011;11619;50.140;8.518;2022-08-21T15:30:06;3.17;;;1.67;;
22904;SDS011;11619;50.140;8.518;2022-08-21T15:32:33;3.58;;;2.35;;
22904;SDS011;11619;50.140;8.518;2022-08-21T15:34:59;3.67;;;1.73;;
22904;SDS011;11619;50.140;8.518;2022-08-21T15:37:26;4.18;;;1.88;;
22904;SDS011;11619;50.140;8.518;2022-08-21T15:39:53;4.68;;;1.98;;
22904;SDS011;11619;50.140;8.518;2022-08-21T15:42:19;4.03;;;1.77;;
22904;SDS011;11619;50.140;8.518;2022-08-21T15:44:46;2.75;;;1.65;;
22904;SDS011;11619;50.140;8.518;2022-08-21T15:47:15;3.17;;;1.63;;
22904;SDS011;11619;50.140;8.518;2022-08-21T15:49:43;6.95;;;2.10;;
22904;SDS011;11619;50.140;8.518;2022-08-21T15:52:12;4.15;;;1.77;;
22904;SDS011;11619;50.140;8.518;2022-08-21T15:54:42;6.95;;;1.98;;
22904;SDS011;11619;50.140;8.518;2022-08-21T15:57:09;3.10;;;1.88;;
22904;SDS011;11619;50.140;8.518;2022-08-21T15:59:40;3.08;;;1.92;;
22904;SDS011;11619;50.140;8.518;2022-08-21T16:02:09;2.65;;;1.48;;
22904;SDS011;11619;50.140;8.518;2022-08-21T16:04:39;4.15;;;1.88;;
22904;SDS011;11619;50.140;8.518;2022-08-21T16:07:06;3.08;;;1.55;;
22904;SDS011;11619;50.140;8.518;2022-08-21T16:09:34;4.15;;;2.13;;
22904;SDS011;11619;50.140;8.518;2022-08-21T16:12:01;3.17;;;1.60;;
22904;SDS011;11619;50.140;8.518;2022-08-21T16:14:28;4.22;;;1.90;;
22904;SDS011;11619;50.140;8.518;2022-08-21T16:16:55;2.80;;;1.70;;
22904;SDS011;11619;50.140;8.518;2022-08-21T16:19:22;4.70;;;1.88;;